sensor_id;sensor_type;location;lat;lon;timestamp;pressure;altitude;pressure_sealevel;temperature;humidity
36378;BME280;22402;42.746;23.606;2023-05-12T00:01:39;93745.88;;;13.87;74.15
36378;BME280;22402;42.746;23.606;2023-05-12T00:04:06;93730.44;;;13.76;74.03
36378;BME280;22402;42.746;23.606;2023-05-12T00:06:32;93746.22;;;13.84;74.10
36378;BME280;22402;42.746;23.606;2023-05-12T00:08:57;93744.56;;;13.83;74.26
36378;BME280;22402;42.746;23.606;2023-05-12T00:11:23;93736.34;;;13.78;74.11
36378;BME280;22402;42.746;23.606;2023-05-12T00:13:48;93746.22;;;13.84;73.99
36378;BME280;22402;42.746;23.606;2023-05-12T00:16:14;93744.56;;;13.83;74.12
36378;BME280;22402;42.746;23.606;2023-05-12T00:18:41;93743.72;;;13.83;73.92
36378;BME280;22402;42.746;23.606;2023-05-12T00:21:07;93742.91;;;13.82;73.92
36378;BME280;22402;42.746;23.606;2023-05-12T00:23:33;93743.91;;;13.81;74.03
36378;BME280;22402;42.746;23.606;2023-05-12T00:25:58;93750.13;;;13.80;73.79
36378;BME280;22402;42.746;23.606;2023-05-12T00:28:24;93751.09;;;13.79;74.14
36378;BME280;22402;42.746;23.606;2023-05-12T00:30:49;93746.97;;;13.77;74.10
36378;BME280;22402;42.746;23.606;2023-05-12T00:33:15;93743.53;;;13.76;73.90
36378;BME280;22402;42.746;23.606;2023-05-12T00:35:41;93739.28;;;13.75;74.04
36378;BME280;22402;42.746;23.606;2023-05-12T00:38:10;93742.72;;;13.76;73.62
36378;BME280;22402;42.746;23.606;2023-05-12T00:40:36;93747.97;;;13.76;73.77
36378;BME280;22402;42.746;23.606;2023-05-12T00:43:01;93753.38;;;13.74;73.86
36378;BME280;22402;42.746;23.606;2023-05-12T00:45:27;93747.28;;;13.74;73.67
36378;BME280;22402;42.746;23.606;2023-05-12T00:47:53;93739.91;;;13.69;73.54
36378;BME280;22402;42.746;23.606;2023-05-12T00:50:19;93752.69;;;13.72;73.55
36378;BME280;22402;42.746;23.606;2023-05-12T00:52:46;93742.22;;;13.72;73.25
36378;BME280;22402;42.746;23.606;2023-05-12T00:55:12;93738.91;;;13.70;73.57
36378;BME280;22402;42.746;23.606;2023-05-12T00:57:39;93738.91;;;13.70;73.49
36378;BME280;22402;42.746;23.606;2023-05-12T01:00:05;93746.94;;;13.68;73.43
36378;BME280;22402;42.746;23.606;2023-05-12T01:02:31;93755.78;;;13.67;73.71
36378;BME280;22402;42.746;23.606;2023-05-12T01:04:57;93743.66;;;13.66;73.04
36378;BME280;22402;42.746;23.606;2023-05-12T01:07:24;93751.34;;;13.68;73.45
36378;BME280;22402;42.746;23.606;2023-05-12T01:09:54;93742.84;;;13.66;73.24
36378;BME280;22402;42.746;23.606;2023-05-12T01:12:21;93752.50;;;13.65;73.27
36378;BME280;22402;42.746;23.606;2023-05-12T01:14:47;93749.22;;;13.63;73.04
36378;BME280;22402;42.746;23.606;2023-05-12T01:17:18;93748.41;;;13.63;73.17
36378;BME280;22402;42.746;23.606;2023-05-12T01:19:47;93750.34;;;13.61;73.51
36378;BME280;22402;42.746;23.606;2023-05-12T01:22:14;93748.03;;;13.58;73.18
36378;BME280;22402;42.746;23.606;2023-05-12T01:24:53;93748.69;;;13.60;73.01
36378;BME280;22402;42.746;23.606;2023-05-12T01:27:20;93757.53;;;13.59;73.29
36378;BME280;22402;42.746;23.606;2023-05-12T01:29:48;93755.88;;;13.58;72.97
36378;BME280;22402;42.746;23.606;2023-05-12T01:32:14;93760.44;;;13.56;73.20
36378;BME280;22402;42.746;23.606;2023-05-12T01:34:41;93756.19;;;13.55;73.37
36378;BME280;22402;42.746;23.606;2023-05-12T01:37:08;93753.72;;;13.53;73.26
36378;BME280;22402;42.746;23.606;2023-05-12T01:39:34;93754.56;;;13.54;73.19
36378;BME280;22402;42.746;23.606;2023-05-12T01:42:01;93766.00;;;13.53;73.19
36378;BME280;22402;42.746;23.606;2023-05-12T01:44:27;93753.88;;;13.52;73.08
36378;BME280;22402;42.746;23.606;2023-05-12T01:46:52;93754.88;;;13.51;73.41
36378;BME280;22402;42.746;23.606;2023-05-12T01:49:18;93757.63;;;13.49;73.19
36378;BME280;22402;42.746;23.606;2023-05-12T01:51:43;93749.94;;;13.48;73.31
36378;BME280;22402;42.746;23.606;2023-05-12T01:54:09;93756.13;;;13.47;73.49
36378;BME280;22402;42.746;23.606;2023-05-12T01:56:34;93748.59;;;13.43;73.45
36378;BME280;22402;42.746;23.606;2023-05-12T01:59:00;93746.44;;;13.39;73.67
36378;BME280;22402;42.746;23.606;2023-05-12T02:01:26;93743.97;;;13.37;73.74
36378;BME280;22402;42.746;23.606;2023-05-12T02:03:56;93747.56;;;13.36;73.85
36378;BME280;22402;42.746;23.606;2023-05-12T02:06:22;93754.06;;;13.32;73.88
36378;BME280;22402;42.746;23.606;2023-05-12T02:08:48;93746.38;;;13.31;74.06
36378;BME280;22402;42.746;23.606;2023-05-12T02:11:14;93755.69;;;13.25;74.09
36378;BME280;22402;42.746;23.606;2023-05-12T02:13:40;93750.72;;;13.22;74.23
36378;BME280;22402;42.746;23.606;2023-05-12T02:16:06;93757.88;;;13.20;74.63
36378;BME280;22402;42.746;23.606;2023-05-12T02:18:32;93752.97;;;13.17;74.57
36378;BME280;22402;42.746;23.606;2023-05-12T02:20:58;93754.94;;;13.15;74.85
36378;BME280;22402;42.746;23.606;2023-05-12T02:23:23;93724.19;;;12.99;74.48
36378;BME280;22402;42.746;23.606;2023-05-12T02:25:49;93755.53;;;13.09;74.53
36378;BME280;22402;42.746;23.606;2023-05-12T02:28:14;93748.94;;;13.05;74.86
36378;BME280;22402;42.746;23.606;2023-05-12T02:30:46;93747.91;;;12.97;75.25
36378;BME280;22402;42.746;23.606;2023-05-12T02:33:16;93736.25;;;12.92;75.35
36378;BME280;22402;42.746;23.606;2023-05-12T02:35:42;93747.41;;;12.94;75.29
36378;BME280;22402;42.746;23.606;2023-05-12T02:38:08;93749.63;;;12.89;75.43
36378;BME280;22402;42.746;23.606;2023-05-12T02:40:34;93751.56;;;12.87;75.80
36378;BME280;22402;42.746;23.606;2023-05-12T02:42:59;93754.34;;;12.85;75.30
36378;BME280;22402;42.746;23.606;2023-05-12T02:45:28;93753.69;;;12.83;75.74
36378;BME280;22402;42.746;23.606;2023-05-12T02:47:54;93753.00;;;12.81;75.76
36378;BME280;22402;42.746;23.606;2023-05-12T03:59:56;93783.69;;;12.16;73.23
36378;BME280;22402;42.746;23.606;2023-05-12T04:02:22;93777.78;;;11.86;73.87
36378;BME280;22402;42.746;23.606;2023-05-12T04:04:48;93777.28;;;11.73;75.81
36378;BME280;22402;42.746;23.606;2023-05-12T04:07:14;93781.53;;;11.74;76.80
36378;BME280;22402;42.746;23.606;2023-05-12T04:09:40;93788.25;;;11.76;77.67
36378;BME280;22402;42.746;23.606;2023-05-12T04:12:05;93785.22;;;11.81;78.05
36378;BME280;22402;42.746;23.606;2023-05-12T04:14:31;93779.84;;;11.82;77.84
36378;BME280;22402;42.746;23.606;2023-05-12T04:16:57;93777.50;;;11.89;78.05
36378;BME280;22402;42.746;23.606;2023-05-12T04:19:22;93786.72;;;11.93;78.16
36378;BME280;22402;42.746;23.606;2023-05-12T04:21:48;93790.38;;;12.00;78.04
36378;BME280;22402;42.746;23.606;2023-05-12T04:24:13;93789.28;;;12.03;78.34
36378;BME280;22402;42.746;23.606;2023-05-12T04:26:39;93785.56;;;12.05;78.04
36378;BME280;22402;42.746;23.606;2023-05-12T04:29:05;93780.97;;;12.07;77.87
36378;BME280;22402;42.746;23.606;2023-05-12T04:31:30;93783.19;;;12.12;78.39
36378;BME280;22402;42.746;23.606;2023-05-12T04:33:56;93782.34;;;12.12;78.39
36378;BME280;22402;42.746;23.606;2023-05-12T04:36:21;93782.06;;;12.15;78.82
36378;BME280;22402;42.746;23.606;2023-05-12T04:38:47;93778.47;;;12.16;78.47
36378;BME280;22402;42.746;23.606;2023-05-12T04:41:13;93783.41;;;12.19;78.97
36378;BME280;22402;42.746;23.606;2023-05-12T04:43:38;93780.66;;;12.20;78.58
36378;BME280;22402;42.746;23.606;2023-05-12T04:46:04;93778.72;;;12.22;78.22
36378;BME280;22402;42.746;23.606;2023-05-12T04:48:29;93778.41;;;12.25;79.07
36378;BME280;22402;42.746;23.606;2023-05-12T04:50:57;93772.06;;;12.28;79.10
36378;BME280;22402;42.746;23.606;2023-05-12T04:53:23;93774.41;;;12.31;78.82
36378;BME280;22402;42.746;23.606;2023-05-12T04:55:49;93766.25;;;12.34;78.99
36378;BME280;22402;42.746;23.606;2023-05-12T04:58:16;93771.19;;;12.37;79.01
36378;BME280;22402;42.746;23.606;2023-05-12T05:00:42;93766.34;;;12.42;79.21
36378;BME280;22402;42.746;23.606;2023-05-12T05:03:08;93774.19;;;12.42;79.56
36378;BME280;22402;42.746;23.606;2023-05-12T05:05:33;93773.59;;;12.48;79.33
36378;BME280;22402;42.746;23.606;2023-05-12T05:07:59;93780.50;;;12.49;79.55
36378;BME280;22402;42.746;23.606;2023-05-12T05:12:54;93786.78;;;12.57;79.69
36378;BME280;22402;42.746;23.606;2023-05-12T05:15:20;93792.53;;;12.60;79.26
36378;BME280;22402;42.746;23.606;2023-05-12T05:17:46;93794.03;;;12.63;79.70
36378;BME280;22402;42.746;23.606;2023-05-12T05:20:14;93794.72;;;12.65;79.96
36378;BME280;22402;42.746;23.606;2023-05-12T05:22:39;93796.22;;;12.67;79.67
36378;BME280;22402;42.746;23.606;2023-05-12T05:25:05;93787.38;;;12.68;79.94
36378;BME280;22402;42.746;23.606;2023-05-12T05:27:31;93797.56;;;12.71;79.91
36378;BME280;22402;42.746;23.606;2023-05-12T05:29:56;93797.38;;;12.73;79.91
36378;BME280;22402;42.746;23.606;2023-05-12T05:32:22;93792.03;;;12.74;80.57
36378;BME280;22402;42.746;23.606;2023-05-12T05:34:48;93785.00;;;12.75;80.68
36378;BME280;22402;42.746;23.606;2023-05-12T05:37:14;93784.69;;;12.78;80.26
36378;BME280;22402;42.746;23.606;2023-05-12T05:39:39;93796.53;;;12.82;80.60
36378;BME280;22402;42.746;23.606;2023-05-12T05:42:05;93797.34;;;12.83;80.66
36378;BME280;22402;42.746;23.606;2023-05-12T05:44:30;93801.47;;;12.85;80.39
36378;BME280;22402;42.746;23.606;2023-05-12T05:46:56;93792.63;;;12.86;80.75
36378;BME280;22402;42.746;23.606;2023-05-12T05:49:21;93801.16;;;12.88;80.61
36378;BME280;22402;42.746;23.606;2023-05-12T05:51:47;93790.69;;;12.88;80.43
36378;BME280;22402;42.746;23.606;2023-05-12T05:54:12;93802.78;;;12.89;81.02
36378;BME280;22402;42.746;23.606;2023-05-12T05:56:38;93806.09;;;12.91;81.05
36378;BME280;22402;42.746;23.606;2023-05-12T05:59:03;93805.78;;;12.94;80.82
36378;BME280;22402;42.746;23.606;2023-05-12T06:01:30;93801.50;;;12.93;80.97
36378;BME280;22402;42.746;23.606;2023-05-12T06:03:56;93811.38;;;12.99;81.34
36378;BME280;22402;42.746;23.606;2023-05-12T06:06:21;93803.53;;;12.99;81.33
36378;BME280;22402;42.746;23.606;2023-05-12T06:08:47;93813.69;;;13.03;81.50
36378;BME280;22402;42.746;23.606;2023-05-12T06:11:12;93804.59;;;13.07;81.62
36378;BME280;22402;42.746;23.606;2023-05-12T06:13:38;93813.94;;;13.09;81.64
36378;BME280;22402;42.746;23.606;2023-05-12T06:16:04;93808.69;;;13.09;81.42
36378;BME280;22402;42.746;23.606;2023-05-12T06:18:30;93809.91;;;13.15;81.56
36378;BME280;22402;42.746;23.606;2023-05-12T06:20:58;93808.75;;;13.17;81.63
36378;BME280;22402;42.746;23.606;2023-05-12T06:23:23;93806.97;;;13.18;82.19
36378;BME280;22402;42.746;23.606;2023-05-12T06:25:49;93807.31;;;13.23;81.93
36378;BME280;22402;42.746;23.606;2023-05-12T06:28:14;93809.66;;;13.26;82.16
36378;BME280;22402;42.746;23.606;2023-05-12T06:30:40;93809.06;;;13.32;82.11
36378;BME280;22402;42.746;23.606;2023-05-12T06:33:06;93808.75;;;13.35;82.09
36378;BME280;22402;42.746;23.606;2023-05-12T06:35:31;93812.06;;;13.37;82.23
36378;BME280;22402;42.746;23.606;2023-05-12T06:37:57;93810.25;;;13.38;82.65
36378;BME280;22402;42.746;23.606;2023-05-12T06:40:22;93812.13;;;13.45;82.47
36378;BME280;22402;42.746;23.606;2023-05-12T06:42:47;93810.03;;;13.49;82.42
36378;BME280;22402;42.746;23.606;2023-05-12T06:45:13;93805.59;;;13.50;82.45
36378;BME280;22402;42.746;23.606;2023-05-12T06:47:39;93815.47;;;13.56;82.71
36378;BME280;22402;42.746;23.606;2023-05-12T06:50:08;93819.56;;;13.58;82.81
36378;BME280;22402;42.746;23.606;2023-05-12T06:52:34;93820.38;;;13.59;82.96
36378;BME280;22402;42.746;23.606;2023-05-12T06:55:00;93821.56;;;13.64;83.07
36378;BME280;22402;42.746;23.606;2023-05-12T06:57:25;93824.72;;;13.68;82.82
36378;BME280;22402;42.746;23.606;2023-05-12T06:59:51;93815.72;;;13.71;83.16
36378;BME280;22402;42.746;23.606;2023-05-12T07:02:16;93826.06;;;13.72;83.10
36378;BME280;22402;42.746;23.606;2023-05-12T07:04:42;93822.16;;;13.76;83.23
36378;BME280;22402;42.746;23.606;2023-05-12T07:07:08;93821.84;;;13.79;83.33
36378;BME280;22402;42.746;23.606;2023-05-12T07:09:33;93822.66;;;13.80;83.23
36378;BME280;22402;42.746;23.606;2023-05-12T07:11:59;93823.84;;;13.85;83.43
36378;BME280;22402;42.746;23.606;2023-05-12T07:14:25;93827.81;;;13.89;83.39
36378;BME280;22402;42.746;23.606;2023-05-12T07:16:50;93818.66;;;13.94;83.49
36378;BME280;22402;42.746;23.606;2023-05-12T07:19:16;93824.41;;;13.97;83.52
36378;BME280;22402;42.746;23.606;2023-05-12T07:21:42;93821.47;;;14.00;83.67
36378;BME280;22402;42.746;23.606;2023-05-12T07:27:13;93822.50;;;14.07;83.95
36378;BME280;22402;42.746;23.606;2023-05-12T07:29:39;93829.75;;;14.13;83.92
36378;BME280;22402;42.746;23.606;2023-05-12T07:32:04;93830.25;;;14.17;83.65
36378;BME280;22402;42.746;23.606;2023-05-12T07:34:31;93828.81;;;14.23;84.01
36378;BME280;22402;42.746;23.606;2023-05-12T07:36:56;93818.81;;;14.26;83.85
36378;BME280;22402;42.746;23.606;2023-05-12T07:39:24;93818.66;;;14.28;84.38
36378;BME280;22402;42.746;23.606;2023-05-12T07:41:50;93826.41;;;14.38;83.98
36378;BME280;22402;42.746;23.606;2023-05-12T07:44:17;93817.22;;;14.42;84.33
36378;BME280;22402;42.746;23.606;2023-05-12T07:46:42;93821.84;;;14.48;84.42
36378;BME280;22402;42.746;23.606;2023-05-12T07:49:08;93823.03;;;14.53;84.10
36378;BME280;22402;42.746;23.606;2023-05-12T07:51:33;93828.66;;;14.58;84.10
36378;BME280;22402;42.746;23.606;2023-05-12T07:53:59;93837.38;;;14.67;84.29
36378;BME280;22402;42.746;23.606;2023-05-12T07:56:25;93833.13;;;14.74;84.14
36378;BME280;22402;42.746;23.606;2023-05-12T07:58:50;93834.13;;;14.81;84.26
36378;BME280;22402;42.746;23.606;2023-05-12T08:01:15;93836.13;;;14.88;84.58
36378;BME280;22402;42.746;23.606;2023-05-12T08:03:42;93837.91;;;14.95;85.05
36378;BME280;22402;42.746;23.606;2023-05-12T08:06:08;93831.88;;;15.03;84.57
36378;BME280;22402;42.746;23.606;2023-05-12T08:08:33;93844.19;;;15.11;84.78
36378;BME280;22402;42.746;23.606;2023-05-12T08:11:00;93835.81;;;15.15;84.68
36378;BME280;22402;42.746;23.606;2023-05-12T08:13:26;93837.81;;;15.21;84.75
36378;BME280;22402;42.746;23.606;2023-05-12T08:15:51;93845.69;;;15.30;84.83
36378;BME280;22402;42.746;23.606;2023-05-12T08:18:17;93841.94;;;15.32;85.03
36378;BME280;22402;42.746;23.606;2023-05-12T08:20:43;93845.38;;;15.41;85.09
36378;BME280;22402;42.746;23.606;2023-05-12T08:23:08;93835.84;;;15.48;85.03
36378;BME280;22402;42.746;23.606;2023-05-12T08:25:34;93828.44;;;15.52;85.21
36378;BME280;22402;42.746;23.606;2023-05-12T08:28:01;93830.91;;;15.61;85.17
36378;BME280;22402;42.746;23.606;2023-05-12T08:30:27;93833.56;;;15.69;85.60
36378;BME280;22402;42.746;23.606;2023-05-12T08:32:56;93831.25;;;15.75;85.78
36378;BME280;22402;42.746;23.606;2023-05-12T08:35:23;93835.34;;;15.85;85.29
36378;BME280;22402;42.746;23.606;2023-05-12T08:37:50;93825.00;;;15.84;85.64
36378;BME280;22402;42.746;23.606;2023-05-12T08:40:20;93840.44;;;16.03;85.30
36378;BME280;22402;42.746;23.606;2023-05-12T08:45:36;93841.19;;;16.20;85.89
36378;BME280;22402;42.746;23.606;2023-05-12T08:48:04;93837.72;;;16.28;85.63
36378;BME280;22402;42.746;23.606;2023-05-12T08:50:34;93822.91;;;16.35;85.37
36378;BME280;22402;42.746;23.606;2023-05-12T08:53:02;93841.78;;;16.47;85.64
36378;BME280;22402;42.746;23.606;2023-05-12T08:55:28;93808.09;;;16.42;85.46
36378;BME280;22402;42.746;23.606;2023-05-12T08:57:55;93839.09;;;16.63;85.81
36378;BME280;22402;42.746;23.606;2023-05-12T09:00:22;93830.97;;;16.73;85.38
36378;BME280;22402;42.746;23.606;2023-05-12T09:02:50;93829.97;;;16.82;85.45
36378;BME280;22402;42.746;23.606;2023-05-12T09:05:17;93830.22;;;16.95;85.45
36378;BME280;22402;42.746;23.606;2023-05-12T09:07:43;93841.16;;;17.07;85.41
36378;BME280;22402;42.746;23.606;2023-05-12T09:10:14;93825.78;;;17.19;85.13
36378;BME280;22402;42.746;23.606;2023-05-12T09:12:41;93830.66;;;17.30;85.09
36378;BME280;22402;42.746;23.606;2023-05-12T09:15:15;93823.00;;;17.43;84.92
36378;BME280;22402;42.746;23.606;2023-05-12T09:17:42;93812.66;;;17.57;84.91
36378;BME280;22402;42.746;23.606;2023-05-12T09:20:09;93809.25;;;17.71;85.00
36378;BME280;22402;42.746;23.606;2023-05-12T09:22:35;93813.41;;;17.88;85.20
36378;BME280;22402;42.746;23.606;2023-05-12T09:25:13;93798.41;;;18.04;85.13
36378;BME280;22402;42.746;23.606;2023-05-12T09:27:40;93802.69;;;18.19;84.81
36378;BME280;22402;42.746;23.606;2023-05-12T09:30:06;93793.94;;;18.34;84.11
36378;BME280;22402;42.746;23.606;2023-05-12T09:32:33;93793.41;;;18.53;83.38
36378;BME280;22402;42.746;23.606;2023-05-12T09:35:07;93797.38;;;18.79;80.86
36378;BME280;22402;42.746;23.606;2023-05-12T09:37:35;93793.94;;;19.00;79.32
36378;BME280;22402;42.746;23.606;2023-05-12T09:40:03;93804.38;;;19.23;78.20
36378;BME280;22402;42.746;23.606;2023-05-12T09:42:31;93799.88;;;19.45;75.04
36378;BME280;22402;42.746;23.606;2023-05-12T09:45:08;93794.13;;;19.63;74.97
36378;BME280;22402;42.746;23.606;2023-05-12T09:47:38;93801.63;;;19.80;75.18
36378;BME280;22402;42.746;23.606;2023-05-12T09:50:05;93800.56;;;19.96;75.45
36378;BME280;22402;42.746;23.606;2023-05-12T09:52:36;93803.28;;;20.10;74.81
36378;BME280;22402;42.746;23.606;2023-05-12T09:55:11;93794.97;;;20.19;74.54
36378;BME280;22402;42.746;23.606;2023-05-12T09:57:44;93804.03;;;20.32;73.86
36378;BME280;22402;42.746;23.606;2023-05-12T10:00:11;93791.25;;;20.42;73.44
36378;BME280;22402;42.746;23.606;2023-05-12T10:02:43;93793.22;;;20.61;72.46
36378;BME280;22402;42.746;23.606;2023-05-12T10:05:14;93796.97;;;20.80;72.20
36378;BME280;22402;42.746;23.606;2023-05-12T10:07:43;93793.94;;;20.97;70.13
36378;BME280;22402;42.746;23.606;2023-05-12T10:10:14;93792.97;;;21.11;69.80
36378;BME280;22402;42.746;23.606;2023-05-12T10:12:42;93799.97;;;21.32;68.93
36378;BME280;22402;42.746;23.606;2023-05-12T10:15:08;93787.78;;;21.51;68.12
36378;BME280;22402;42.746;23.606;2023-05-12T10:17:35;93785.53;;;21.68;67.64
36378;BME280;22402;42.746;23.606;2023-05-12T10:20:02;93777.59;;;21.81;67.51
36378;BME280;22402;42.746;23.606;2023-05-12T10:22:29;93788.81;;;21.96;67.24
36378;BME280;22402;42.746;23.606;2023-05-12T10:24:56;93773.88;;;22.08;67.54
36378;BME280;22402;42.746;23.606;2023-05-12T10:27:22;93775.53;;;22.23;67.67
36378;BME280;22402;42.746;23.606;2023-05-12T10:29:49;93770.41;;;22.35;68.19
36378;BME280;22402;42.746;23.606;2023-05-12T10:32:15;93774.03;;;22.47;67.46
36378;BME280;22402;42.746;23.606;2023-05-12T10:34:41;93777.44;;;22.67;67.27
36378;BME280;22402;42.746;23.606;2023-05-12T10:37:09;93782.47;;;22.95;69.04
36378;BME280;22402;42.746;23.606;2023-05-12T10:39:48;93779.06;;;23.20;65.87
36378;BME280;22402;42.746;23.606;2023-05-12T10:42:21;93778.38;;;23.31;64.15
36378;BME280;22402;42.746;23.606;2023-05-12T10:44:54;93779.19;;;23.38;64.09
36378;BME280;22402;42.746;23.606;2023-05-12T10:47:45;93774.63;;;23.46;63.91
36378;BME280;22402;42.746;23.606;2023-05-12T10:50:10;93770.47;;;23.56;63.84
36378;BME280;22402;42.746;23.606;2023-05-12T10:52:40;93765.47;;;23.66;63.88
36378;BME280;22402;42.746;23.606;2023-05-12T10:55:10;93761.31;;;23.77;63.42
36378;BME280;22402;42.746;23.606;2023-05-12T10:57:47;93759.84;;;23.50;53.11
36378;BME280;22402;42.746;23.606;2023-05-12T11:00:14;93763.03;;;23.33;52.49
36378;BME280;22402;42.746;23.606;2023-05-12T11:02:49;93768.16;;;23.28;52.14
36378;BME280;22402;42.746;23.606;2023-05-12T11:05:15;93758.00;;;23.18;51.27
36378;BME280;22402;42.746;23.606;2023-05-12T11:07:46;93758.47;;;23.09;49.56
36378;BME280;22402;42.746;23.606;2023-05-12T11:10:13;93754.84;;;23.03;48.92
36378;BME280;22402;42.746;23.606;2023-05-12T11:12:38;93752.31;;;23.15;51.51
36378;BME280;22402;42.746;23.606;2023-05-12T11:15:06;93757.03;;;23.45;53.56
36378;BME280;22402;42.746;23.606;2023-05-12T11:17:32;93756.44;;;23.74;53.37
36378;BME280;22402;42.746;23.606;2023-05-12T11:19:58;93762.72;;;24.05;53.35
36378;BME280;22402;42.746;23.606;2023-05-12T11:22:25;93757.13;;;24.31;53.83
36378;BME280;22402;42.746;23.606;2023-05-12T11:24:52;93755.81;;;24.59;52.64
36378;BME280;22402;42.746;23.606;2023-05-12T11:27:19;93762.84;;;24.90;51.77
36378;BME280;22402;42.746;23.606;2023-05-12T11:29:58;93758.59;;;25.19;42.71
36378;BME280;22402;42.746;23.606;2023-05-12T11:32:25;93761.94;;;25.15;36.72
36378;BME280;22402;42.746;23.606;2023-05-12T11:34:50;93761.66;;;25.05;34.49
36378;BME280;22402;42.746;23.606;2023-05-12T11:37:16;93755.22;;;24.94;35.20
36378;BME280;22402;42.746;23.606;2023-05-12T11:39:45;93765.00;;;24.82;35.35
36378;BME280;22402;42.746;23.606;2023-05-12T11:42:10;93758.66;;;24.64;34.14
36378;BME280;22402;42.746;23.606;2023-05-12T11:44:36;93762.66;;;24.55;34.82
36378;BME280;22402;42.746;23.606;2023-05-12T11:52:11;93768.81;;;24.30;34.63
36378;BME280;22402;42.746;23.606;2023-05-12T11:54:36;93776.31;;;24.15;34.34
36378;BME280;22402;42.746;23.606;2023-05-12T11:57:02;93774.88;;;23.94;34.47
36378;BME280;22402;42.746;23.606;2023-05-12T11:59:29;93763.47;;;23.62;34.60
36378;BME280;22402;42.746;23.606;2023-05-12T12:01:58;93765.25;;;23.36;34.35
36378;BME280;22402;42.746;23.606;2023-05-12T12:04:31;93766.03;;;23.12;34.67
36378;BME280;22402;42.746;23.606;2023-05-12T12:06:57;93764.28;;;22.86;35.10
36378;BME280;22402;42.746;23.606;2023-05-12T12:09:32;93765.81;;;22.62;35.59
36378;BME280;22402;42.746;23.606;2023-05-12T12:11:59;93751.00;;;22.27;36.14
36378;BME280;22402;42.746;23.606;2023-05-12T12:14:25;93768.56;;;22.08;36.66
36378;BME280;22402;42.746;23.606;2023-05-12T12:16:50;93759.63;;;21.90;36.22
36378;BME280;22402;42.746;23.606;2023-05-12T12:19:16;93752.28;;;21.65;36.69
36378;BME280;22402;42.746;23.606;2023-05-12T12:21:41;93767.78;;;21.55;37.67
36378;BME280;22402;42.746;23.606;2023-05-12T12:24:07;93767.34;;;21.38;37.88
36378;BME280;22402;42.746;23.606;2023-05-12T12:26:33;93764.44;;;21.26;38.02
36378;BME280;22402;42.746;23.606;2023-05-12T12:28:59;93762.81;;;21.12;38.18
36378;BME280;22402;42.746;23.606;2023-05-12T12:31:24;93766.47;;;21.04;38.51
36378;BME280;22402;42.746;23.606;2023-05-12T12:33:50;93760.75;;;20.94;39.41
36378;BME280;22402;42.746;23.606;2023-05-12T12:36:15;93754.59;;;20.87;38.36
36378;BME280;22402;42.746;23.606;2023-05-12T12:38:41;93769.66;;;20.80;39.18
36378;BME280;22402;42.746;23.606;2023-05-12T12:41:07;93759.22;;;20.71;39.69
36378;BME280;22402;42.746;23.606;2023-05-12T12:43:32;93765.09;;;20.67;39.62
36378;BME280;22402;42.746;23.606;2023-05-12T12:45:58;93761.81;;;20.58;39.99
36378;BME280;22402;42.746;23.606;2023-05-12T12:48:23;93760.19;;;20.57;42.01
36378;BME280;22402;42.746;23.606;2023-05-12T12:50:50;93766.16;;;20.73;44.49
36378;BME280;22402;42.746;23.606;2023-05-12T12:53:16;93762.53;;;20.93;47.32
36378;BME280;22402;42.746;23.606;2023-05-12T12:55:41;93759.31;;;21.11;48.59
36378;BME280;22402;42.746;23.606;2023-05-12T12:58:07;93766.50;;;21.31;49.36
36378;BME280;22402;42.746;23.606;2023-05-12T13:00:33;93772.28;;;21.48;49.04
36378;BME280;22402;42.746;23.606;2023-05-12T13:02:59;93761.03;;;21.59;49.81
36378;BME280;22402;42.746;23.606;2023-05-12T13:05:24;93767.81;;;21.75;50.50
36378;BME280;22402;42.746;23.606;2023-05-12T13:07:50;93761.84;;;21.86;50.33
36378;BME280;22402;42.746;23.606;2023-05-12T13:10:16;93763.31;;;21.95;51.31
36378;BME280;22402;42.746;23.606;2023-05-12T13:12:42;93768.19;;;22.05;51.60
36378;BME280;22402;42.746;23.606;2023-05-12T13:15:08;93757.16;;;22.08;51.90
36378;BME280;22402;42.746;23.606;2023-05-12T13:17:34;93765.31;;;22.13;51.92
36378;BME280;22402;42.746;23.606;2023-05-12T13:20:00;93764.06;;;22.16;51.56
36378;BME280;22402;42.746;23.606;2023-05-12T13:22:26;93763.25;;;22.15;51.48
36378;BME280;22402;42.746;23.606;2023-05-12T13:24:53;93756.31;;;22.14;50.70
36378;BME280;22402;42.746;23.606;2023-05-12T13:27:19;93756.31;;;22.14;49.83
36378;BME280;22402;42.746;23.606;2023-05-12T13:29:44;93738.75;;;22.13;50.09
36378;BME280;22402;42.746;23.606;2023-05-12T13:32:16;93737.91;;;22.13;49.74
36378;BME280;22402;42.746;23.606;2023-05-12T13:34:42;93730.81;;;22.13;49.54
36378;BME280;22402;42.746;23.606;2023-05-12T13:37:07;93737.34;;;22.17;49.33
36378;BME280;22402;42.746;23.606;2023-05-12T13:39:33;93739.78;;;22.19;49.79
36378;BME280;22402;42.746;23.606;2023-05-12T13:42:01;93735.09;;;22.21;49.52
36378;BME280;22402;42.746;23.606;2023-05-12T13:44:27;93741.00;;;22.23;49.62
36378;BME280;22402;42.746;23.606;2023-05-12T13:46:53;93739.56;;;22.27;50.04
36378;BME280;22402;42.746;23.606;2023-05-12T13:49:18;93737.53;;;22.29;50.07
36378;BME280;22402;42.746;23.606;2023-05-12T13:51:44;93738.94;;;22.32;49.93
36378;BME280;22402;42.746;23.606;2023-05-12T13:54:10;93727.28;;;22.33;50.19
36378;BME280;22402;42.746;23.606;2023-05-12T13:56:35;93730.72;;;22.40;50.53
36378;BME280;22402;42.746;23.606;2023-05-12T13:59:02;93737.28;;;22.44;50.91
36378;BME280;22402;42.746;23.606;2023-05-12T14:01:30;93745.22;;;22.50;51.07
36378;BME280;22402;42.746;23.606;2023-05-12T14:03:55;93749.06;;;22.55;51.23
36378;BME280;22402;42.746;23.606;2023-05-12T14:06:20;93745.59;;;22.61;50.74
36378;BME280;22402;42.746;23.606;2023-05-12T14:08:46;93753.34;;;22.62;51.10
36378;BME280;22402;42.746;23.606;2023-05-12T14:11:12;93750.25;;;22.65;50.55